Time;durP1;ratioP1;P1;durP2;ratioP2;P2;SDS_P1;SDS_P2;PMS_P1;PMS_P2;Temp;Humidity;BMP_temperature;BMP_pressure;BME280_temperature;BME280_humidity;BME280_pressure;Samples;Min_cycle;Max_cycle;Signal;HPM_P1;HPM_P2
2023/09/18 00:02:10;;;;;;;13.88;12.00;;;;;;;18.18;86.26;100985.31;7395814;19;19915;-66
2023/09/18 00:04:39;;;;;;;13.93;11.85;;;;;;;18.16;86.53;100977.38;7399978;19;20345;-66
2023/09/18 00:07:07;;;;;;;12.85;10.48;;;;;;;18.14;86.56;100965.84;7392199;19;19923;-66
2023/09/18 00:09:39;;;;;;;14.15;12.65;;;;;;;18.11;86.13;100958.97;7396654;19;19926;-65
2023/09/18 00:12:09;;;;;;;15.25;13.65;;;;;;;18.05;86.27;100953.56;7399958;19;19922;-66
2023/09/18 00:14:38;;;;;;;15.93;13.48;;;;;;;18.02;86.31;100954.84;7398474;19;20352;-66
2023/09/18 00:17:07;;;;;;;13.60;12.18;;;;;;;17.98;86.42;100948.19;7397899;19;19926;-66
2023/09/18 00:19:35;;;;;;;14.95;12.50;;;;;;;17.95;85.97;100932.25;7397369;19;20356;-66
2023/09/18 00:22:04;;;;;;;13.60;12.20;;;;;;;17.93;86.16;100928.09;7398026;19;19951;-66
2023/09/18 00:24:56;;;;;;;14.60;12.80;;;;;;;17.88;86.49;100917.84;7395185;19;19925;-66
2023/09/18 00:27:24;;;;;;;13.95;11.65;;;;;;;17.87;86.69;100910.72;7399483;19;19926;-66
2023/09/18 00:29:53;;;;;;;14.65;12.57;;;;;;;17.86;86.17;100903.59;7395768;19;19922;-66
2023/09/18 00:32:21;;;;;;;13.95;12.23;;;;;;;17.82;86.52;100902.38;7396032;19;20270;-66
2023/09/18 00:34:50;;;;;;;17.48;13.10;;;;;;;17.78;87.38;100892.16;7393343;19;19934;-66
2023/09/18 00:37:19;;;;;;;16.42;12.63;;;;;;;17.79;87.12;100894.66;7388486;19;19926;-68
2023/09/18 00:39:48;;;;;;;19.52;14.68;;;;;;;17.80;87.71;100881.88;7395912;19;19918;-66
2023/09/18 00:42:21;;;;;;;17.95;13.70;;;;;;;17.84;88.01;100874.91;7398607;19;19927;-66
2023/09/18 00:44:50;;;;;;;18.95;14.30;;;;;;;17.87;88.05;100855.38;7394731;19;20363;-66
2023/09/18 00:47:19;;;;;;;17.38;14.95;;;;;;;17.91;88.38;100842.97;7395743;19;19982;-66
2023/09/18 00:49:52;;;;;;;19.98;15.30;;;;;;;17.96;88.40;100826.78;7399215;19;19919;-66
2023/09/18 00:52:22;;;;;;;19.90;15.93;;;;;;;18.02;88.44;100834.91;7396602;19;19929;-65
2023/09/18 00:54:52;;;;;;;21.15;15.15;;;;;;;18.04;88.56;100832.75;7396980;19;19947;-66
2023/09/18 00:57:23;;;;;;;19.15;15.55;;;;;;;18.05;88.64;100815.34;7394974;19;20337;-66
2023/09/18 00:59:53;;;;;;;20.92;16.25;;;;;;;18.08;88.69;100806.72;7394721;19;20269;-66
2023/09/18 01:02:22;;;;;;;19.50;15.60;;;;;;;18.11;88.46;100809.00;7394455;19;19922;-66
2023/09/18 01:04:52;;;;;;;22.65;15.45;;;;;;;18.13;88.76;100804.13;7390533;19;20611;-65
2023/09/18 01:07:21;;;;;;;19.02;14.73;;;;;;;18.16;88.57;100804.75;7392464;19;19926;-66
2023/09/18 01:09:50;;;;;;;20.00;14.55;;;;;;;18.16;88.80;100791.97;7398942;19;20325;-66
2023/09/18 01:12:26;;;;;;;18.30;14.45;;;;;;;18.17;88.74;100779.97;7400197;19;19915;-65
2023/09/18 01:15:02;;;;;;;20.08;15.05;;;;;;;18.17;88.57;100779.13;7397880;19;20350;-65
2023/09/18 01:17:33;;;;;;;18.73;15.98;;;;;;;18.17;88.27;100769.06;7396022;19;19948;-66
2023/09/18 01:20:01;;;;;;;19.05;15.05;;;;;;;18.14;88.41;100756.72;7400425;19;19935;-66
2023/09/18 01:22:34;;;;;;;17.40;14.48;;;;;;;18.13;87.97;100760.50;7397898;19;19963;-66
2023/09/18 01:25:02;;;;;;;16.05;13.55;;;;;;;18.11;87.94;100759.09;7397132;19;19926;-66
2023/09/18 01:27:31;;;;;;;21.13;13.68;;;;;;;18.08;88.30;100752.19;7400099;19;19959;-65
2023/09/18 01:30:00;;;;;;;19.17;13.90;;;;;;;18.03;88.07;100749.31;7395149;19;19919;-66
2023/09/18 01:32:32;;;;;;;16.15;13.43;;;;;;;18.02;87.66;100752.28;7393185;19;20431;-66
2023/09/18 01:35:05;;;;;;;17.75;13.23;;;;;;;17.99;87.96;100747.28;7396412;19;19922;-66
2023/09/18 01:37:38;;;;;;;15.88;13.35;;;;;;;17.95;88.15;100749.63;7397454;19;19982;-66
2023/09/18 01:40:11;;;;;;;18.50;13.80;;;;;;;17.94;87.92;100750.69;7396311;19;19922;-66
2023/09/18 01:42:39;;;;;;;17.98;14.85;;;;;;;17.91;88.27;100756.59;7397452;19;19936;-66
2023/09/18 01:45:10;;;;;;;17.10;12.45;;;;;;;17.89;88.65;100747.00;7394487;19;19926;-66
2023/09/18 01:47:39;;;;;;;16.73;12.85;;;;;;;17.87;88.33;100739.03;7398962;19;20183;-66
2023/09/18 01:50:09;;;;;;;17.90;13.98;;;;;;;17.87;88.46;100744.47;7397919;19;20329;-66
2023/09/18 01:52:40;;;;;;;18.13;13.05;;;;;;;17.89;88.60;100747.81;7396185;19;20272;-66
2023/09/18 01:55:10;;;;;;;16.42;12.75;;;;;;;17.90;88.38;100740.47;7395893;19;19919;-66
2023/09/18 01:57:39;;;;;;;18.45;14.10;;;;;;;17.89;88.68;100739.66;7399237;19;19939;-66
2023/09/18 02:00:10;;;;;;;16.27;12.80;;;;;;;17.91;88.70;100742.97;7399317;19;20369;-65
2023/09/18 02:02:39;;;;;;;16.27;13.45;;;;;;;17.92;88.73;100736.47;7397166;19;19926;-66
2023/09/18 02:05:08;;;;;;;13.45;11.07;;;;;;;17.95;88.63;100732.44;7394396;19;19937;-65
2023/09/18 02:07:39;;;;;;;14.48;11.65;;;;;;;17.97;88.32;100717.53;7398763;19;19975;-65
2023/09/18 02:10:09;;;;;;;15.73;11.98;;;;;;;17.98;88.73;100711.03;7396193;19;19947;-66
2023/09/18 02:12:38;;;;;;;15.13;12.18;;;;;;;17.97;88.77;100719.41;7398266;19;19948;-66
2023/09/18 02:15:10;;;;;;;15.02;12.05;;;;;;;17.94;88.39;100707.09;7396375;19;19952;-66
2023/09/18 02:17:38;;;;;;;;;;;;;;;17.68;89.58;100708.25;7397858;19;19923;-65
2023/09/18 02:20:11;;;;;;;15.75;11.82;;;;;;;17.84;88.73;100714.13;7397670;19;20357;-66
2023/09/18 02:22:46;;;;;;;14.02;11.38;;;;;;;17.83;88.58;100694.22;7398113;19;19918;-66
2023/09/18 02:25:15;;;;;;;13.93;11.18;;;;;;;17.84;88.52;100705.94;7396678;19;19990;-65
2023/09/18 02:28:04;;;;;;;15.48;11.18;;;;;;;17.84;89.00;100695.06;7396692;19;19918;-66
2023/09/18 02:30:32;;;;;;;15.50;11.48;;;;;;;17.85;88.97;100691.28;7395787;19;19926;-65
2023/09/18 02:33:21;;;;;;;16.23;11.60;;;;;;;17.85;88.81;100703.00;7392082;19;20329;-66
2023/09/18 02:35:49;;;;;;;14.20;11.40;;;;;;;17.88;88.78;100691.66;7393824;19;19923;-66
2023/09/18 02:38:21;;;;;;;15.30;12.57;;;;;;;17.91;88.88;100693.91;7396949;19;19919;-66
2023/09/18 02:40:50;;;;;;;15.02;12.00;;;;;;;17.92;88.67;100681.09;7393948;19;19926;-66
2023/09/18 02:43:19;;;;;;;14.07;12.23;;;;;;;17.92;88.63;100676.50;7394264;19;20270;-65
2023/09/18 02:45:47;;;;;;;14.73;11.18;;;;;;;17.94;88.83;100668.09;7395829;19;19918;-66
2023/09/18 02:48:36;;;;;;;16.10;12.27;;;;;;;17.95;88.98;100676.03;7393339;19;19927;-66
2023/09/18 02:51:05;;;;;;;15.95;12.85;;;;;;;17.96;88.70;100672.25;7391802;19;19918;-66
2023/09/18 02:53:37;;;;;;;16.15;11.10;;;;;;;18.00;88.92;100662.53;7395798;19;20277;-67
2023/09/18 02:56:06;;;;;;;15.57;12.18;;;;;;;17.99;88.86;100655.41;7393845;19;19951;-66
2023/09/18 02:58:34;;;;;;;14.77;11.57;;;;;;;18.00;88.91;100645.34;7395470;19;19918;-65
2023/09/18 03:01:23;;;;;;;16.48;10.75;;;;;;;17.98;88.84;100637.44;7390941;19;19982;-66
2023/09/18 03:03:51;;;;;;;16.17;12.63;;;;;;;18.00;88.41;100637.19;7392194;19;19956;-66
2023/09/18 03:06:20;;;;;;;15.43;11.23;;;;;;;18.00;88.78;100631.72;7390166;19;19922;-66
2023/09/18 03:08:51;;;;;;;15.45;12.68;;;;;;;18.00;88.95;100629.00;7394166;19;19922;-65
2023/09/18 03:11:20;;;;;;;17.52;12.52;;;;;;;17.97;89.14;100624.84;7395509;19;19918;-66
2023/09/18 03:13:49;;;;;;;15.98;12.02;;;;;;;17.97;89.25;100616.69;7395326;19;19943;-66
2023/09/18 03:16:18;;;;;;;16.05;11.40;;;;;;;17.97;89.07;100613.13;7392454;19;19951;-65
2023/09/18 03:18:46;;;;;;;14.23;11.55;;;;;;;17.98;89.21;100599.25;7394759;19;19939;-65
2023/09/18 03:21:15;;;;;;;14.38;11.90;;;;;;;17.97;89.34;100586.69;7394156;19;20324;-65
2023/09/18 03:24:07;;;;;;;15.80;12.07;;;;;;;17.97;89.34;100581.25;7394277;19;20348;-65
2023/09/18 03:26:36;;;;;;;16.63;11.68;;;;;;;17.99;88.94;100586.47;7395187;19;19922;-65
2023/09/18 03:29:04;;;;;;;13.98;11.45;;;;;;;17.97;89.13;100581.25;7395228;19;19922;-65
2023/09/18 03:31:33;;;;;;;17.13;12.93;;;;;;;17.98;89.01;100579.34;7388975;19;19946;-65
2023/09/18 03:34:01;;;;;;;17.05;12.02;;;;;;;17.96;89.40;100574.13;7388953;19;19922;-65
2023/09/18 03:36:30;;;;;;;16.15;11.57;;;;;;;17.96;89.27;100557.78;7391509;19;19923;-65
2023/09/18 03:38:58;;;;;;;15.35;11.20;;;;;;;17.96;88.99;100565.09;7394620;19;19930;-65
2023/09/18 03:41:50;;;;;;;16.10;12.27;;;;;;;17.92;89.41;100545.66;7394383;19;19926;-65
2023/09/18 03:44:19;;;;;;;14.60;10.82;;;;;;;17.91;89.18;100541.28;7395466;19;19922;-65
2023/09/18 03:46:48;;;;;;;15.27;11.13;;;;;;;17.91;89.14;100535.81;7391054;19;19926;-65
2023/09/18 03:49:16;;;;;;;14.20;11.45;;;;;;;17.90;89.50;100523.28;7395109;19;19939;-65
2023/09/18 03:51:45;;;;;;;15.48;11.95;;;;;;;17.90;89.74;100517.00;7380986;19;19929;-68
2023/09/18 03:54:13;;;;;;;15.15;11.18;;;;;;;17.89;89.62;100508.00;7393153;19;19946;-65
2023/09/18 03:56:42;;;;;;;17.08;11.27;;;;;;;17.88;89.88;100500.88;7394295;19;19922;-66
2023/09/18 03:59:14;;;;;;;15.20;11.80;;;;;;;17.90;89.39;100492.47;7392730;19;20279;-65
2023/09/18 04:01:42;;;;;;;14.48;11.15;;;;;;;17.89;89.68;100480.75;7392403;19;19943;-65
2023/09/18 04:04:11;;;;;;;16.38;10.80;;;;;;;17.91;89.69;100475.03;7392689;19;19951;-65
2023/09/18 04:06:40;;;;;;;14.82;11.00;;;;;;;17.89;89.51;100460.81;7390796;19;19926;-65
2023/09/18 04:09:09;;;;;;;14.68;11.88;;;;;;;17.87;89.91;100452.88;7394049;19;19926;-65
2023/09/18 04:11:38;;;;;;;14.52;11.02;;;;;;;17.88;89.89;100448.25;7397652;19;19931;-65
2023/09/18 04:14:07;;;;;;;15.27;10.65;;;;;;;17.87;89.82;100441.97;7401112;19;19918;-66
2023/09/18 04:16:41;;;;;;;15.75;12.07;;;;;;;17.89;89.68;100425.41;7394228;19;19930;-65
2023/09/18 04:19:30;;;;;;;15.30;11.45;;;;;;;17.88;89.86;100419.13;7394587;19;20360;-65
2023/09/18 04:21:59;;;;;;;18.10;10.95;;;;;;;17.89;90.27;100420.78;7393212;19;19918;-65
2023/09/18 04:24:28;;;;;;;14.68;11.13;;;;;;;17.90;89.83;100406.09;7399612;19;19919;-65
2023/09/18 04:26:57;;;;;;;18.10;11.50;;;;;;;17.91;90.39;100402.28;7397279;19;20293;-65
2023/09/18 04:29:25;;;;;;;15.57;11.63;;;;;;;17.93;89.98;100396.59;7398855;19;19923;-65
2023/09/18 04:31:57;;;;;;;16.83;11.05;;;;;;;17.91;90.09;100391.38;7392451;19;20083;-65
2023/09/18 04:34:26;;;;;;;16.13;10.90;;;;;;;17.91;90.26;100385.94;7398149;19;20300;-65
2023/09/18 04:36:54;;;;;;;15.30;10.63;;;;;;;17.91;89.81;100375.03;7399079;19;19949;-65
2023/09/18 04:39:23;;;;;;;15.88;10.82;;;;;;;17.92;90.37;100373.13;7398415;19;20706;-65
2023/09/18 04:41:53;;;;;;;15.23;10.07;;;;;;;17.92;90.14;100363.06;7392598;19;19922;-65
2023/09/18 04:44:21;;;;;;;18.80;10.73;;;;;;;17.91;90.24;100366.84;7399405;19;20327;-65
2023/09/18 04:46:50;;;;;;;14.45;9.90;;;;;;;17.93;89.97;100364.72;7399085;19;19918;-65
2023/09/18 04:49:21;;;;;;;15.25;10.65;;;;;;;17.93;89.94;100361.16;7400284;19;19927;-65
2023/09/18 04:51:50;;;;;;;13.32;9.82;;;;;;;17.94;90.58;100358.22;7395128;19;19998;-65
2023/09/18 04:54:19;;;;;;;13.52;8.73;;;;;;;17.95;90.10;100357.13;7398385;19;19921;-65
2023/09/18 04:56:48;;;;;;;15.55;11.27;;;;;;;17.97;90.58;100356.91;7400024;19;19927;-66
2023/09/18 04:59:16;;;;;;;16.38;10.70;;;;;;;17.98;90.22;100348.50;7399904;19;20305;-65
2023/09/18 05:01:45;;;;;;;14.68;9.45;;;;;;;18.01;90.12;100342.56;7398172;19;19922;-65
2023/09/18 05:04:14;;;;;;;16.45;9.70;;;;;;;18.02;90.45;100344.22;7395874;19;19971;-64
2023/09/18 05:06:45;;;;;;;14.15;10.48;;;;;;;18.04;89.88;100347.53;7394342;19;19922;-65
2023/09/18 05:09:14;;;;;;;15.27;10.25;;;;;;;18.05;90.43;100338.28;7399429;19;19922;-64
2023/09/18 05:11:43;;;;;;;14.48;9.65;;;;;;;18.04;90.12;100328.44;7384692;19;19918;-65
2023/09/18 05:14:12;;;;;;;15.48;9.27;;;;;;;18.04;90.52;100333.91;7388069;19;20002;-65
2023/09/18 05:16:41;;;;;;;16.70;9.52;;;;;;;18.06;90.87;100329.06;7399078;19;20520;-64
2023/09/18 05:19:09;;;;;;;13.40;9.30;;;;;;;18.06;90.49;100333.69;7396859;19;19914;-65
2023/09/18 05:21:38;;;;;;;10.52;8.23;;;;;;;18.05;91.02;100321.94;7393909;19;20324;-65
2023/09/18 05:24:09;;;;;;;13.02;8.90;;;;;;;18.07;90.90;100311.63;7393472;19;19927;-65
2023/09/18 05:26:38;;;;;;;;;;;;;;;17.90;92.01;100310.72;7397233;19;19922;-65
2023/09/18 05:29:06;;;;;;;13.68;9.57;;;;;;;18.07;90.61;100298.00;7397239;19;19951;-65
2023/09/18 05:31:36;;;;;;;12.77;9.02;;;;;;;18.11;90.82;100292.91;7399003;19;19938;-65
2023/09/18 05:34:04;;;;;;;12.63;9.20;;;;;;;18.11;90.16;100303.81;7394566;19;19927;-65
2023/09/18 05:36:34;;;;;;;14.75;8.65;;;;;;;18.11;90.62;100310.09;7385512;19;20395;-65
2023/09/18 05:39:03;;;;;;;14.13;8.30;;;;;;;18.11;91.14;100307.34;7387895;19;19926;-65
2023/09/18 05:41:34;;;;;;;11.05;8.15;;;;;;;18.14;90.47;100304.16;7396948;19;19994;-65
2023/09/18 05:44:04;;;;;;;11.57;8.43;;;;;;;18.16;90.87;100303.91;7398792;19;19937;-65
2023/09/18 05:46:33;;;;;;;14.52;7.80;;;;;;;18.17;90.45;100300.09;7396653;19;19993;-65
2023/09/18 05:49:02;;;;;;;11.57;7.93;;;;;;;18.21;90.57;100295.03;7400017;19;20472;-64
2023/09/18 05:51:31;;;;;;;10.70;7.13;;;;;;;18.22;90.36;100289.31;7390555;19;19922;-65
2023/09/18 05:54:00;;;;;;;10.65;7.85;;;;;;;18.24;90.96;100281.72;7394835;19;19923;-65
2023/09/18 05:56:28;;;;;;;13.38;7.40;;;;;;;18.28;90.99;100282.06;7399756;19;19978;-64
2023/09/18 05:58:59;;;;;;;11.35;8.32;;;;;;;18.33;90.94;100274.81;7397664;19;19946;-65
2023/09/18 06:01:28;;;;;;;10.00;7.20;;;;;;;18.37;90.66;100280.63;7387798;19;19951;-65
2023/09/18 06:03:57;;;;;;;14.75;7.40;;;;;;;18.40;90.38;100280.97;7393605;19;20277;-64
2023/09/18 06:06:25;;;;;;;10.63;7.03;;;;;;;18.43;90.87;100293.25;7387339;19;20345;-65
2023/09/18 06:08:55;;;;;;;8.95;6.53;;;;;;;18.47;90.14;100283.53;7395282;19;19931;-64
2023/09/18 06:11:23;;;;;;;11.93;7.28;;;;;;;18.48;90.11;100287.91;7391935;19;20465;-64
2023/09/18 06:13:52;;;;;;;8.85;7.10;;;;;;;18.52;90.12;100281.78;7392974;19;19918;-65
2023/09/18 06:16:23;;;;;;;14.73;7.63;;;;;;;18.56;90.09;100282.09;7394489;19;20333;-64
2023/09/18 06:18:52;;;;;;;10.38;7.20;;;;;;;18.59;89.90;100278.91;7398289;19;19943;-65
2023/09/18 06:21:20;;;;;;;10.93;6.97;;;;;;;18.59;90.35;100279.72;7394521;19;19949;-65
2023/09/18 06:23:49;;;;;;;9.15;7.10;;;;;;;18.62;90.55;100289.31;7394415;19;19955;-66
2023/09/18 06:26:17;;;;;;;10.50;6.88;;;;;;;18.64;90.21;100300.00;7397855;19;19926;-65
2023/09/18 06:28:46;;;;;;;10.88;6.68;;;;;;;18.65;90.68;100302.47;7395598;19;19956;-66
2023/09/18 06:31:16;;;;;;;11.25;7.40;;;;;;;18.67;90.23;100305.81;7397838;19;19922;-66
2023/09/18 06:33:47;;;;;;;9.98;6.40;;;;;;;18.68;90.60;100296.53;7392824;19;19925;-65
2023/09/18 06:36:17;;;;;;;11.00;7.80;;;;;;;18.70;90.49;100304.47;7391383;19;20360;-66
2023/09/18 06:38:45;;;;;;;13.23;7.28;;;;;;;18.72;90.29;100286.81;7379995;19;19926;-65
2023/09/18 06:41:14;;;;;;;12.82;7.03;;;;;;;18.74;89.99;100286.53;7386348;19;20069;-65
2023/09/18 06:43:42;;;;;;;10.18;6.25;;;;;;;18.76;90.31;100285.25;7393301;19;19923;-66
2023/09/18 06:46:12;;;;;;;12.10;6.05;;;;;;;18.79;90.28;100289.38;7394972;19;19923;-65
2023/09/18 06:48:45;;;;;;;11.70;6.03;;;;;;;18.80;90.18;100294.59;7395936;19;19919;-65
2023/09/18 06:51:16;;;;;;;9.90;6.05;;;;;;;18.81;90.15;100307.13;7384197;19;19919;-65
2023/09/18 06:53:47;;;;;;;10.90;5.20;;;;;;;18.84;90.02;100305.84;7389807;19;19927;-66
2023/09/18 06:56:16;;;;;;;7.43;4.95;;;;;;;18.84;90.29;100312.13;7393464;19;20006;-65
2023/09/18 06:58:47;;;;;;;8.57;5.53;;;;;;;18.84;90.00;100309.41;7395999;19;20344;-65
2023/09/18 07:01:18;;;;;;;10.70;6.18;;;;;;;18.83;90.37;100313.19;7384217;19;19946;-64
2023/09/18 07:03:47;;;;;;;10.43;5.90;;;;;;;18.82;90.51;100311.53;7384678;19;19959;-66
2023/09/18 07:06:20;;;;;;;8.45;4.75;;;;;;;18.80;90.94;100316.41;7380105;19;19968;-66
2023/09/18 07:08:49;;;;;;;10.63;5.82;;;;;;;18.77;91.67;100297.78;7389771;19;19974;-65
2023/09/18 07:11:18;;;;;;;10.07;5.35;;;;;;;18.76;91.69;100300.78;7396862;19;20366;-66
2023/09/18 07:13:47;;;;;;;15.05;5.90;;;;;;;18.73;92.06;100291.16;7396843;19;19914;-66
2023/09/18 07:16:16;;;;;;;6.88;4.70;;;;;;;18.72;92.31;100289.53;7397501;19;19919;-65
2023/09/18 07:18:45;;;;;;;11.50;5.95;;;;;;;18.71;92.94;100292.50;7397428;19;20600;-65
2023/09/18 07:21:13;;;;;;;8.70;5.30;;;;;;;18.71;93.56;100297.94;7394875;19;19930;-65
2023/09/18 07:23:45;;;;;;;13.23;5.15;;;;;;;18.71;93.06;100303.41;7394162;19;19937;-65
2023/09/18 07:26:14;;;;;;;9.05;6.18;;;;;;;18.72;93.55;100307.81;7395729;19;19927;-66
2023/09/18 07:28:44;;;;;;;8.85;5.50;;;;;;;18.71;94.32;100320.63;7397342;19;19926;-65
2023/09/18 07:31:14;;;;;;;8.90;5.68;;;;;;;18.73;93.93;100331.25;7396356;19;19919;-65
2023/09/18 07:33:43;;;;;;;14.60;6.28;;;;;;;18.74;94.13;100330.19;7396918;19;20373;-66
2023/09/18 07:36:14;;;;;;;11.55;5.47;;;;;;;18.73;94.16;100318.44;7394699;19;20622;-65
2023/09/18 07:38:46;;;;;;;9.35;5.82;;;;;;;18.74;94.82;100332.94;7394626;19;20482;-66
2023/09/18 07:41:15;;;;;;;11.45;6.28;;;;;;;18.74;94.43;100331.03;7395516;19;19914;-66
2023/09/18 07:43:43;;;;;;;11.80;6.35;;;;;;;18.73;94.49;100334.00;7396784;19;19943;-66
2023/09/18 07:46:13;;;;;;;10.88;5.93;;;;;;;18.74;94.45;100346.56;7397142;19;19926;-66
2023/09/18 07:48:41;;;;;;;8.05;5.68;;;;;;;18.72;93.86;100343.28;7400185;19;19943;-65
2023/09/18 07:51:15;;;;;;;9.10;5.82;;;;;;;18.72;94.67;100337.81;7394998;19;19940;-65
2023/09/18 07:53:47;;;;;;;12.23;5.85;;;;;;;18.73;94.31;100328.53;7395513;19;19930;-66
2023/09/18 07:56:15;;;;;;;14.40;6.15;;;;;;;18.77;94.48;100327.00;7401476;19;19922;-65
2023/09/18 07:58:46;;;;;;;13.30;7.95;;;;;;;18.85;94.34;100316.53;7402289;19;20357;-65
2023/09/18 08:01:16;;;;;;;10.63;6.68;;;;;;;18.92;94.18;100308.16;7402205;19;19924;-67
2023/09/18 08:03:45;;;;;;;14.55;6.40;;;;;;;19.01;93.74;100315.72;7396673;19;20474;-65
2023/09/18 08:06:15;;;;;;;16.38;6.38;;;;;;;19.08;94.07;100310.09;7400289;19;19919;-66
2023/09/18 08:08:47;;;;;;;7.97;6.13;;;;;;;19.14;93.85;100300.94;7398199;19;20447;-65
2023/09/18 08:11:16;;;;;;;12.18;7.28;;;;;;;19.20;93.13;100307.31;7399968;19;19952;-66
2023/09/18 08:13:44;;;;;;;9.23;7.03;;;;;;;19.22;93.71;100316.91;7401790;19;19962;-66
2023/09/18 08:16:13;;;;;;;12.02;7.45;;;;;;;19.26;93.43;100309.03;7402138;19;19953;-65
2023/09/18 08:18:42;;;;;;;15.40;7.05;;;;;;;19.29;93.62;100314.00;7401062;19;19943;-65
2023/09/18 08:21:13;;;;;;;9.43;6.53;;;;;;;19.32;93.50;100324.44;7399676;19;19958;-66
2023/09/18 08:23:42;;;;;;;12.57;6.15;;;;;;;19.34;93.82;100325.00;7400190;19;20396;-67
2023/09/18 08:26:13;;;;;;;9.60;5.45;;;;;;;19.33;93.45;100332.38;7399773;19;20353;-66
2023/09/18 08:28:43;;;;;;;7.22;5.00;;;;;;;19.32;93.08;100327.19;7399052;19;20645;-66
2023/09/18 08:31:12;;;;;;;8.82;5.43;;;;;;;19.34;93.59;100330.47;7399256;19;19943;-65
2023/09/18 08:33:41;;;;;;;8.15;5.15;;;;;;;19.37;93.96;100330.81;7396784;19;20361;-66
2023/09/18 08:36:10;;;;;;;10.15;5.07;;;;;;;19.42;93.32;100333.63;7400262;19;19972;-66
2023/09/18 08:38:38;;;;;;;8.90;5.15;;;;;;;19.44;93.16;100344.34;7397832;19;19961;-66
2023/09/18 08:41:31;;;;;;;7.60;4.82;;;;;;;19.44;93.50;100352.53;7398904;19;20024;-67
2023/09/18 08:44:03;;;;;;;6.82;4.72;;;;;;;19.41;93.16;100336.63;7401063;19;19925;-66
2023/09/18 08:46:34;;;;;;;6.82;4.35;;;;;;;19.39;93.38;100336.03;7401661;19;19925;-66
2023/09/18 08:49:03;;;;;;;6.60;4.82;;;;;;;19.32;93.44;100352.59;7398687;19;20404;-65
2023/09/18 08:51:32;;;;;;;7.00;4.60;;;;;;;19.27;93.88;100357.13;7397847;19;19933;-67
2023/09/18 08:54:02;;;;;;;6.80;4.38;;;;;;;19.24;93.93;100343.97;7396123;19;19922;-66
2023/09/18 08:56:35;;;;;;;6.90;4.28;;;;;;;19.23;94.31;100332.22;7395929;19;19927;-66
2023/09/18 08:59:04;;;;;;;6.63;4.47;;;;;;;19.22;93.99;100344.22;7400614;19;19922;-66
2023/09/18 09:01:32;;;;;;;8.35;4.68;;;;;;;19.21;94.85;100345.28;7400609;19;19931;-66
2023/09/18 09:04:01;;;;;;;6.70;4.20;;;;;;;19.21;94.63;100339.81;7399282;19;19919;-66
2023/09/18 09:06:29;;;;;;;7.07;4.70;;;;;;;19.23;94.63;100355.97;7397637;19;19922;-67
2023/09/18 09:08:59;;;;;;;7.10;4.35;;;;;;;19.22;94.69;100359.75;7394074;19;19926;-66
2023/09/18 09:11:27;;;;;;;5.70;4.72;;;;;;;19.22;95.14;100365.22;7396671;19;19918;-66
2023/09/18 09:14:18;;;;;;;7.63;4.95;;;;;;;19.17;95.18;100376.06;7401175;19;19925;-66
2023/09/18 09:16:50;;;;;;;8.23;5.60;;;;;;;19.21;95.28;100355.38;7395041;19;19918;-66
2023/09/18 09:19:19;;;;;;;8.77;4.82;;;;;;;19.21;94.99;100348.00;7396662;19;20349;-66
2023/09/18 09:21:51;;;;;;;8.43;5.72;;;;;;;19.26;95.54;100345.38;7397866;19;20308;-66
2023/09/18 09:24:19;;;;;;;8.07;5.60;;;;;;;19.29;94.93;100347.59;7399586;19;19951;-66
2023/09/18 09:27:00;;;;;;;10.38;6.30;;;;;;;19.27;94.92;100365.31;7401000;19;19923;-66
2023/09/18 09:29:32;;;;;;;6.90;5.05;;;;;;;19.31;95.21;100350.09;7400579;19;19918;-66
2023/09/18 09:32:14;;;;;;;;;;;;;;;19.22;96.02;100349.66;7401824;19;19939;-66
2023/09/18 09:34:44;;;;;;;8.55;5.65;;;;;;;19.37;95.01;100346.38;7399392;19;19919;-66
2023/09/18 09:37:12;;;;;;;9.55;5.63;;;;;;;19.42;94.48;100351.91;7400511;19;19939;-66
2023/09/18 09:39:52;;;;;;;8.55;5.65;;;;;;;19.40;95.10;100376.78;7396457;19;20322;-67
2023/09/18 09:42:24;;;;;;;11.48;6.28;;;;;;;19.44;94.77;100369.75;7400235;19;19986;-66
2023/09/18 09:45:07;;;;;;;11.00;6.43;;;;;;;19.39;95.17;100372.38;7400426;19;20380;-66
2023/09/18 09:47:37;;;;;;;9.60;6.80;;;;;;;19.43;94.96;100380.94;7399067;19;19925;-66
2023/09/18 09:50:13;;;;;;;13.57;7.10;;;;;;;19.42;95.05;100377.34;7399580;19;19914;-66
2023/09/18 09:52:47;;;;;;;10.57;6.88;;;;;;;19.41;95.33;100369.41;7396983;19;19928;-66
2023/09/18 09:55:25;;;;;;;12.80;7.25;;;;;;;19.41;95.49;100358.47;7393482;19;19922;-67
2023/09/18 09:57:57;;;;;;;13.63;7.57;;;;;;;19.50;95.21;100343.38;7387915;19;20290;-66
2023/09/18 10:00:32;;;;;;;9.13;7.05;;;;;;;19.57;94.96;100337.72;7396991;19;19941;-66
2023/09/18 10:03:03;;;;;;;11.15;6.97;;;;;;;19.68;94.79;100337.63;7392311;19;19947;-66
2023/09/18 10:05:34;;;;;;;13.45;7.65;;;;;;;19.80;93.54;100340.28;7393742;19;19918;-66
2023/09/18 10:08:07;;;;;;;13.50;7.15;;;;;;;19.90;93.32;100346.72;7395905;19;19929;-66
2023/09/18 10:10:38;;;;;;;9.52;7.82;;;;;;;20.01;92.89;100352.34;7396984;19;20598;-66
2023/09/18 10:13:15;;;;;;;16.02;8.23;;;;;;;20.11;92.95;100353.31;7399117;19;19918;-66
2023/09/18 10:15:48;;;;;;;13.73;7.72;;;;;;;20.20;92.18;100357.25;7394160;19;19925;-66
2023/09/18 10:18:26;;;;;;;13.07;8.23;;;;;;;20.26;92.28;100371.84;7399207;19;19918;-66
2023/09/18 10:21:07;;;;;;;11.15;7.85;;;;;;;20.29;92.16;100374.06;7392681;19;19926;-66
2023/09/18 10:23:58;;;;;;;12.90;7.20;;;;;;;20.32;91.36;100376.34;7397422;19;20355;-66
2023/09/18 10:26:28;;;;;;;12.15;7.32;;;;;;;20.38;91.85;100370.69;7394672;19;19926;-66
2023/09/18 10:28:59;;;;;;;10.43;6.88;;;;;;;20.48;91.42;100363.69;7390578;19;19971;-67
2023/09/18 10:31:32;;;;;;;12.07;7.25;;;;;;;20.59;90.52;100360.81;7396256;19;19922;-67
2023/09/18 10:34:04;;;;;;;12.98;7.32;;;;;;;20.75;89.95;100342.69;7398948;19;20545;-66
2023/09/18 10:36:33;;;;;;;10.13;7.85;;;;;;;20.92;88.60;100357.09;7394626;19;20030;-66
2023/09/18 10:39:23;;;;;;;7.82;6.47;;;;;;;21.04;87.92;100378.84;7395041;19;20384;-66
2023/09/18 10:41:55;;;;;;;10.25;7.72;;;;;;;20.97;87.52;100386.47;7396884;19;19961;-66
2023/09/18 10:44:25;;;;;;;10.75;6.82;;;;;;;20.92;88.43;100387.22;7397072;19;20525;-66
2023/09/18 10:46:56;;;;;;;11.02;7.15;;;;;;;20.92;87.50;100383.66;7397131;19;19918;-66
2023/09/18 10:49:27;;;;;;;11.45;6.55;;;;;;;20.99;86.47;100396.06;7398162;19;19926;-66
2023/09/18 10:51:58;;;;;;;10.55;7.05;;;;;;;21.03;86.81;100388.16;7391965;19;19915;-66
2023/09/18 10:54:28;;;;;;;9.20;6.80;;;;;;;21.01;86.95;100379.38;7394394;19;19926;-66
2023/09/18 10:56:59;;;;;;;10.35;6.20;;;;;;;21.01;86.59;100385.66;7394791;19;20356;-66
2023/09/18 10:59:27;;;;;;;10.68;6.78;;;;;;;21.04;86.42;100396.13;7396531;19;19933;-66
2023/09/18 11:01:58;;;;;;;10.65;6.80;;;;;;;21.01;85.25;100399.34;7393464;19;19927;-67
2023/09/18 11:04:27;;;;;;;10.32;6.90;;;;;;;21.04;85.82;100393.38;7395545;19;19930;-66
2023/09/18 11:07:09;;;;;;;11.27;6.57;;;;;;;21.08;85.29;100399.16;7391243;19;19915;-66
2023/09/18 11:09:47;;;;;;;8.80;6.72;;;;;;;21.14;84.47;100392.72;7395070;19;19927;-66
2023/09/18 11:12:18;;;;;;;9.30;5.63;;;;;;;21.40;83.95;100402.00;7395457;19;19951;-66
2023/09/18 11:14:49;;;;;;;7.07;5.38;;;;;;;21.65;83.60;100397.59;7392224;19;19926;-66
2023/09/18 11:17:36;;;;;;;7.28;5.47;;;;;;;21.60;80.84;100408.50;7394619;19;19951;-66
2023/09/18 11:20:11;;;;;;;8.30;5.25;;;;;;;21.79;80.81;100410.84;7388374;19;19926;-66
2023/09/18 11:22:41;;;;;;;14.68;5.53;;;;;;;21.98;81.50;100407.47;7386427;19;20609;-66
2023/09/18 11:25:34;;;;;;;8.63;4.80;;;;;;;21.95;79.37;100396.19;7392099;19;19922;-66
2023/09/18 11:28:06;;;;;;;6.38;4.25;;;;;;;21.86;78.70;100404.06;7401306;19;19923;-66
2023/09/18 11:30:35;;;;;;;7.25;4.40;;;;;;;21.89;79.54;100403.53;7393843;19;20237;-66
2023/09/18 11:33:08;;;;;;;5.78;3.75;;;;;;;21.92;77.40;100416.72;7396036;19;19952;-67
2023/09/18 11:35:38;;;;;;;6.38;4.22;;;;;;;21.92;78.75;100424.97;7397115;19;19926;-66